Time;durP1;ratioP1;P1;durP2;ratioP2;P2;SDS_P1;SDS_P2;PMS_P1;PMS_P2;Temp;Humidity;BMP_temperature;BMP_pressure;BME280_temperature;BME280_humidity;BME280_pressure;Samples;Min_cycle;Max_cycle;Signal;HPM_P1;HPM_P2
2023/12/21 00:00:06;;;;;;;2.23;0.80;;;6.00;99.90;;;;;;4214197;28;20883;-80
2023/12/21 00:02:08;;;;;;;0.97;0.63;;;6.00;99.90;;;;;;4219830;28;20561;-80
2023/12/21 00:04:10;;;;;;;1.10;0.70;;;5.90;99.90;;;;;;4215186;28;20204;-80
2023/12/21 00:06:12;;;;;;;1.43;0.67;;;5.90;99.90;;;;;;4218339;28;20507;-80
2023/12/21 00:08:14;;;;;;;1.07;0.60;;;6.00;99.90;;;;;;4214389;28;20212;-80
2023/12/21 00:10:17;;;;;;;2.20;0.70;;;5.90;99.90;;;;;;4215791;28;20213;-81
2023/12/21 00:12:19;;;;;;;1.53;0.70;;;5.90;99.90;;;;;;4217004;28;20982;-80
2023/12/21 00:14:29;;;;;;;1.10;0.63;;;5.90;99.90;;;;;;4215708;28;20503;-81
2023/12/21 00:16:31;;;;;;;3.17;0.80;;;5.90;99.90;;;;;;4219408;28;20439;-80
2023/12/21 00:18:33;;;;;;;2.50;0.80;;;6.00;99.90;;;;;;4219263;28;20217;-80
2023/12/21 00:20:35;;;;;;;1.73;0.90;;;5.90;99.90;;;;;;4221563;28;20220;-80
2023/12/21 00:22:37;;;;;;;2.93;1.00;;;6.00;99.90;;;;;;4215978;28;20462;-80
2023/12/21 00:24:39;;;;;;;2.03;0.60;;;6.00;99.90;;;;;;4216067;28;20479;-80
2023/12/21 00:26:42;;;;;;;2.67;0.73;;;5.90;99.90;;;;;;4215973;28;20474;-80
2023/12/21 00:28:43;;;;;;;3.37;0.90;;;6.00;99.90;;;;;;4219011;28;20483;-80
2023/12/21 00:30:45;;;;;;;0.90;0.60;;;6.00;99.90;;;;;;4215184;28;20450;-80
2023/12/21 00:32:47;;;;;;;1.63;0.70;;;6.00;99.90;;;;;;4217441;28;20237;-80
2023/12/21 00:34:49;;;;;;;1.13;0.60;;;6.00;99.90;;;;;;4216071;28;20447;-81
2023/12/21 00:36:51;;;;;;;1.60;0.53;;;6.10;99.90;;;;;;4215085;28;20487;-80
2023/12/21 00:38:52;;;;;;;3.17;0.77;;;6.10;99.90;;;;;;4219985;28;20455;-80
2023/12/21 00:40:56;;;;;;;1.47;0.47;;;6.20;99.90;;;;;;4217814;28;20458;-80
2023/12/21 00:42:59;;;;;;;3.27;0.70;;;6.20;99.90;;;;;;4224967;28;20288;-79
2023/12/21 00:45:01;;;;;;;0.93;0.67;;;6.10;99.90;;;;;;4221978;28;20944;-80
2023/12/21 00:47:03;;;;;;;1.47;0.67;;;6.10;99.90;;;;;;4221941;28;20439;-80
2023/12/21 00:49:04;;;;;;;0.90;0.60;;;6.10;99.90;;;;;;4220615;28;20490;-79
2023/12/21 00:51:06;;;;;;;3.47;0.73;;;6.10;99.90;;;;;;4220534;28;20224;-80
2023/12/21 00:53:08;;;;;;;0.97;0.60;;;6.10;99.90;;;;;;4219815;28;20205;-79
2023/12/21 00:55:11;;;;;;;1.43;0.80;;;6.10;99.90;;;;;;4218580;28;20208;-80
2023/12/21 00:57:12;;;;;;;2.10;0.70;;;6.20;99.90;;;;;;4214870;28;20865;-79
2023/12/21 00:59:16;;;;;;;2.10;0.47;;;6.20;99.90;;;;;;4213434;28;20443;-79
2023/12/21 01:01:18;;;;;;;1.37;0.60;;;6.20;99.90;;;;;;4214651;28;20253;-80
2023/12/21 01:03:19;;;;;;;1.87;0.73;;;6.20;99.90;;;;;;4216828;28;20448;-79
2023/12/21 01:05:21;;;;;;;1.23;0.60;;;6.20;99.90;;;;;;4214432;28;20450;-79
2023/12/21 01:07:23;;;;;;;1.03;0.50;;;6.20;99.90;;;;;;4217111;28;20351;-79
2023/12/21 01:09:25;;;;;;;0.93;0.57;;;6.20;99.90;;;;;;4214180;28;20536;-79
2023/12/21 01:11:27;;;;;;;1.63;0.60;;;6.20;99.90;;;;;;4222033;28;20503;-80
2023/12/21 01:13:32;;;;;;;0.77;0.60;;;6.20;99.90;;;;;;4215354;28;20443;-80
2023/12/21 01:15:37;;;;;;;0.67;0.50;;;6.20;99.90;;;;;;4212891;28;20477;-80
2023/12/21 01:17:39;;;;;;;2.00;0.80;;;6.30;99.90;;;;;;4216745;28;20451;-80
2023/12/21 01:19:40;;;;;;;3.20;0.70;;;6.20;99.90;;;;;;4215112;28;20205;-80
2023/12/21 01:21:42;;;;;;;1.50;0.50;;;6.20;99.90;;;;;;4214847;28;20241;-80
2023/12/21 01:23:46;;;;;;;1.77;0.50;;;6.20;99.90;;;;;;4214457;28;20993;-80
2023/12/21 01:25:47;;;;;;;0.77;0.40;;;6.20;99.90;;;;;;4213804;28;20217;-80
2023/12/21 01:27:49;;;;;;;0.73;0.60;;;6.20;99.90;;;;;;4216280;28;20522;-80
2023/12/21 01:29:52;;;;;;;0.67;0.50;;;6.20;99.90;;;;;;4217335;28;20532;-80
2023/12/21 01:31:57;;;;;;;1.33;0.60;;;6.20;99.90;;;;;;4215385;28;20912;-80
2023/12/21 01:33:59;;;;;;;0.67;0.50;;;6.20;99.90;;;;;;4214463;28;20447;-80
2023/12/21 01:36:01;;;;;;;1.47;0.60;;;6.20;99.90;;;;;;4213154;28;21003;-80
2023/12/21 01:38:03;;;;;;;1.00;0.50;;;6.30;99.90;;;;;;4213138;28;20470;-80
2023/12/21 01:40:05;;;;;;;0.90;0.53;;;6.30;99.90;;;;;;4214326;28;20436;-80
2023/12/21 01:42:07;;;;;;;1.20;0.60;;;6.30;99.90;;;;;;4214654;28;20553;-80
2023/12/21 01:44:08;;;;;;;0.53;0.47;;;6.30;99.90;;;;;;4214408;28;21290;-80
2023/12/21 01:46:10;;;;;;;0.37;0.30;;;6.30;99.90;;;;;;4215689;28;20457;-80
2023/12/21 01:48:14;;;;;;;0.87;0.50;;;6.40;99.90;;;;;;4213906;28;20208;-80
2023/12/21 01:50:16;;;;;;;0.60;0.50;;;6.40;99.90;;;;;;4195883;28;20503;-80
2023/12/21 01:52:19;;;;;;;1.03;0.50;;;6.40;99.90;;;;;;4213348;28;20455;-80
2023/12/21 01:54:21;;;;;;;0.83;0.70;;;6.50;99.90;;;;;;4211222;28;20507;-80
2023/12/21 01:56:24;;;;;;;0.57;0.50;;;6.50;99.90;;;;;;4214538;28;20430;-80
2023/12/21 01:58:26;;;;;;;1.03;0.60;;;6.50;99.90;;;;;;4221362;28;20449;-80
2023/12/21 02:00:29;;;;;;;1.77;0.60;;;6.50;99.90;;;;;;4210687;28;20939;-80
2023/12/21 02:02:31;;;;;;;0.97;0.43;;;6.50;99.90;;;;;;4216647;28;20519;-80
2023/12/21 02:04:33;;;;;;;1.20;0.60;;;6.50;99.90;;;;;;4213642;28;20491;-80
2023/12/21 02:06:36;;;;;;;0.87;0.47;;;6.50;99.90;;;;;;4214116;28;20470;-80
2023/12/21 02:08:38;;;;;;;0.63;0.30;;;6.50;99.90;;;;;;4214358;28;20549;-80
2023/12/21 02:10:40;;;;;;;0.40;0.40;;;6.60;99.90;;;;;;4216131;28;20222;-80
2023/12/21 02:12:42;;;;;;;1.00;0.50;;;6.50;99.90;;;;;;4212994;28;20221;-80
2023/12/21 02:14:44;;;;;;;0.73;0.50;;;6.50;99.90;;;;;;4214134;28;20208;-80
2023/12/21 02:16:51;;;;;;;0.80;0.43;;;6.50;99.90;;;;;;4217060;28;20205;-80
2023/12/21 02:18:54;;;;;;;1.63;0.60;;;6.50;99.90;;;;;;4212534;28;20212;-79
2023/12/21 02:20:58;;;;;;;1.20;0.43;;;6.50;99.90;;;;;;4214135;28;20759;-79
2023/12/21 02:23:03;;;;;;;0.80;0.40;;;6.50;99.90;;;;;;4214126;28;20209;-80
2023/12/21 02:25:08;;;;;;;0.50;0.50;;;6.40;99.90;;;;;;4213131;28;20200;-79
2023/12/21 02:27:10;;;;;;;0.53;0.47;;;6.50;99.90;;;;;;4213931;28;20255;-79
2023/12/21 02:29:12;;;;;;;0.53;0.53;;;6.50;99.90;;;;;;4216325;28;20197;-79
2023/12/21 02:31:14;;;;;;;0.83;0.50;;;6.40;99.90;;;;;;4215950;28;20277;-79
2023/12/21 02:33:15;;;;;;;0.60;0.50;;;6.50;99.90;;;;;;4193675;28;20578;-79
2023/12/21 02:35:17;;;;;;;1.27;0.40;;;6.50;99.90;;;;;;4213550;28;20701;-79
2023/12/21 02:37:20;;;;;;;0.50;0.40;;;6.50;99.90;;;;;;4214416;28;20854;-78
2023/12/21 02:39:22;;;;;;;0.60;0.60;;;6.50;99.90;;;;;;4210810;28;20226;-79
2023/12/21 02:41:25;;;;;;;1.77;0.40;;;6.50;99.90;;;;;;4212090;28;20461;-79
2023/12/21 02:43:26;;;;;;;0.50;0.40;;;6.50;99.90;;;;;;4213739;28;20575;-79
2023/12/21 02:45:28;;;;;;;0.50;0.40;;;6.50;99.90;;;;;;4210961;28;20229;-79
2023/12/21 02:47:30;;;;;;;0.27;0.27;;;6.50;99.90;;;;;;4214851;28;20213;-79
2023/12/21 02:49:32;;;;;;;0.70;0.40;;;6.50;99.90;;;;;;4213654;28;20966;-78
2023/12/21 02:51:33;;;;;;;0.37;0.37;;;6.60;99.90;;;;;;4210821;28;20229;-78
2023/12/21 02:53:35;;;;;;;0.50;0.40;;;6.60;99.90;;;;;;4211403;28;20875;-79
2023/12/21 02:55:37;;;;;;;1.03;0.50;;;6.80;99.90;;;;;;4211685;28;20204;-79
2023/12/21 02:57:40;;;;;;;0.40;0.30;;;6.60;99.90;;;;;;4215113;28;20484;-79
2023/12/21 02:59:44;;;;;;;0.50;0.50;;;6.60;99.90;;;;;;4215959;28;20358;-78
2023/12/21 03:01:44;;;;;;;0.30;0.30;;;6.60;99.90;;;;;;4210081;28;20469;-78
2023/12/21 03:03:46;;;;;;;0.27;0.20;;;6.60;99.90;;;;;;4215578;28;20870;-78
2023/12/21 03:05:48;;;;;;;0.30;0.30;;;6.60;99.90;;;;;;4217867;28;20200;-79
2023/12/21 03:07:49;;;;;;;0.30;0.30;;;6.60;99.90;;;;;;4215400;28;20813;-78
2023/12/21 03:09:51;;;;;;;0.33;0.33;;;6.60;99.90;;;;;;4216509;28;20225;-78
2023/12/21 03:11:52;;;;;;;1.13;0.40;;;6.60;99.90;;;;;;4215846;28;20998;-78
2023/12/21 03:13:56;;;;;;;0.30;0.30;;;6.60;99.90;;;;;;4218726;28;20439;-78
2023/12/21 03:15:58;;;;;;;1.00;0.37;;;6.60;99.90;;;;;;4215482;28;20242;-77
2023/12/21 03:17:59;;;;;;;1.27;0.60;;;6.60;99.90;;;;;;4217060;28;20201;-78
2023/12/21 03:20:01;;;;;;;0.73;0.30;;;6.70;99.90;;;;;;4213700;28;20198;-79
2023/12/21 03:22:03;;;;;;;0.37;0.33;;;6.70;99.90;;;;;;4215586;28;20653;-79
2023/12/21 03:24:06;;;;;;;0.57;0.40;;;6.60;99.90;;;;;;4211657;28;20703;-79
2023/12/21 03:26:07;;;;;;;0.30;0.30;;;6.70;99.90;;;;;;4209505;28;20251;-79
2023/12/21 03:28:10;;;;;;;0.30;0.30;;;6.70;99.90;;;;;;4212020;28;20255;-79
2023/12/21 03:30:14;;;;;;;0.87;0.30;;;6.70;99.90;;;;;;4214647;28;20244;-79
2023/12/21 03:32:16;;;;;;;0.20;0.20;;;6.70;99.90;;;;;;4192756;28;20241;-80
2023/12/21 03:34:17;;;;;;;0.43;0.30;;;6.80;99.90;;;;;;4212658;28;20677;-79
2023/12/21 03:36:19;;;;;;;0.20;0.20;;;6.80;99.90;;;;;;4217181;28;20197;-79
2023/12/21 03:38:21;;;;;;;0.30;0.20;;;6.90;99.90;;;;;;4215945;28;20466;-79
2023/12/21 03:40:23;;;;;;;1.37;0.30;;;6.80;99.90;;;;;;4214568;28;20197;-79
2023/12/21 03:42:25;;;;;;;0.63;0.30;;;6.80;99.90;;;;;;4214379;28;20630;-79
2023/12/21 03:44:27;;;;;;;0.30;0.27;;;6.90;99.90;;;;;;4214097;28;20205;-79
2023/12/21 03:46:31;;;;;;;0.30;0.20;;;6.90;99.90;;;;;;4215575;28;20235;-79
2023/12/21 03:48:32;;;;;;;2.20;0.30;;;6.90;99.90;;;;;;4213908;28;20205;-79
2023/12/21 03:50:33;;;;;;;0.27;0.27;;;7.00;99.90;;;;;;4214754;28;20757;-79
2023/12/21 03:52:34;;;;;;;0.20;0.20;;;7.00;99.90;;;;;;4217170;28;20295;-79
2023/12/21 03:54:36;;;;;;;0.30;0.23;;;7.00;99.90;;;;;;4213604;28;20205;-80
2023/12/21 03:56:38;;;;;;;0.50;0.30;;;7.00;99.90;;;;;;4214648;28;20845;-79
2023/12/21 03:58:40;;;;;;;0.70;0.40;;;7.00;99.90;;;;;;4215087;28;20228;-79
2023/12/21 04:00:42;;;;;;;0.20;0.20;;;7.10;99.90;;;;;;4222934;28;20666;-79
2023/12/21 04:02:45;;;;;;;0.30;0.30;;;7.00;99.90;;;;;;4217338;28;20234;-79
2023/12/21 04:04:46;;;;;;;0.37;0.30;;;7.10;99.90;;;;;;4217009;28;20210;-79
2023/12/21 04:06:48;;;;;;;0.70;0.30;;;7.10;99.90;;;;;;4213688;28;20246;-79
2023/12/21 04:08:51;;;;;;;1.13;0.47;;;7.10;99.90;;;;;;4209847;28;20821;-79
2023/12/21 04:10:52;;;;;;;0.90;0.40;;;7.10;99.90;;;;;;4218222;28;20234;-79
2023/12/21 04:12:54;;;;;;;0.20;0.20;;;7.10;99.90;;;;;;4218830;28;20205;-80
2023/12/21 04:14:57;;;;;;;0.33;0.20;;;7.10;99.90;;;;;;4217365;28;20637;-79
2023/12/21 04:16:58;;;;;;;0.20;0.20;;;7.20;99.90;;;;;;4217244;28;20230;-80
2023/12/21 04:19:03;;;;;;;0.40;0.23;;;7.20;99.90;;;;;;4212582;28;20712;-80
2023/12/21 04:21:07;;;;;;;0.40;0.30;;;7.30;99.90;;;;;;4193564;28;20223;-80
2023/12/21 04:23:08;;;;;;;1.23;0.23;;;7.30;99.90;;;;;;4208588;28;20206;-78
2023/12/21 04:25:10;;;;;;;0.30;0.20;;;7.30;99.90;;;;;;4201127;28;20762;-79
2023/12/21 04:27:11;;;;;;;0.63;0.27;;;7.30;99.90;;;;;;4216355;28;20236;-79
2023/12/21 04:29:14;;;;;;;0.20;0.20;;;7.30;99.90;;;;;;4217018;28;20568;-80
2023/12/21 04:31:19;;;;;;;0.30;0.30;;;7.40;99.90;;;;;;4215336;28;20777;-80
2023/12/21 04:33:21;;;;;;;0.20;0.20;;;7.30;99.90;;;;;;4197308;28;20221;-80
2023/12/21 04:35:24;;;;;;;3.70;0.20;;;7.40;99.90;;;;;;4214534;28;20221;-80
2023/12/21 04:37:26;;;;;;;0.30;0.30;;;7.40;99.90;;;;;;4214892;28;20205;-80
2023/12/21 04:39:27;;;;;;;0.20;0.20;;;7.40;99.90;;;;;;4216399;28;20687;-80
2023/12/21 04:41:29;;;;;;;0.20;0.20;;;7.40;99.90;;;;;;4215745;28;20266;-80
2023/12/21 04:43:31;;;;;;;0.20;0.20;;;7.40;99.90;;;;;;4214914;28;20775;-80
2023/12/21 04:45:32;;;;;;;0.20;0.10;;;7.40;99.90;;;;;;4215758;28;20574;-80
2023/12/21 04:47:34;;;;;;;0.10;0.10;;;7.40;99.90;;;;;;4216244;28;20193;-79
2023/12/21 04:49:36;;;;;;;0.77;0.20;;;7.40;99.90;;;;;;4215855;28;20777;-81
2023/12/21 04:51:38;;;;;;;1.10;0.30;;;7.40;99.90;;;;;;4214586;28;20264;-80
2023/12/21 04:53:40;;;;;;;0.10;0.10;;;7.50;99.90;;;;;;4216711;28;20235;-80
2023/12/21 04:55:41;;;;;;;0.20;0.20;;;7.50;99.90;;;;;;4214310;28;20214;-81
2023/12/21 04:57:43;;;;;;;1.43;0.10;;;7.50;99.90;;;;;;4216228;28;20289;-81
2023/12/21 04:59:45;;;;;;;0.20;0.20;;;7.50;99.90;;;;;;4216774;28;20610;-82
2023/12/21 05:01:50;;;;;;;0.40;0.23;;;7.50;99.90;;;;;;4215320;28;20229;-81
2023/12/21 05:03:53;;;;;;;0.53;0.20;;;7.50;99.90;;;;;;4216508;28;20807;-80
2023/12/21 05:05:55;;;;;;;0.50;0.20;;;7.50;99.90;;;;;;4213991;28;20217;-80
2023/12/21 05:07:57;;;;;;;0.10;0.10;;;7.50;99.90;;;;;;4214996;28;20216;-80
2023/12/21 05:10:00;;;;;;;0.30;0.20;;;7.50;99.90;;;;;;4214814;28;20216;-79
2023/12/21 05:12:02;;;;;;;0.93;0.67;;;7.50;99.90;;;;;;4215398;28;20248;-79
2023/12/21 05:14:04;;;;;;;0.10;0.10;;;7.60;99.90;;;;;;4216932;28;20264;-81
2023/12/21 05:16:07;;;;;;;0.67;0.20;;;7.60;99.90;;;;;;4216416;28;20209;-80
2023/12/21 05:18:08;;;;;;;0.27;0.20;;;7.50;99.90;;;;;;4216862;28;20260;-80
2023/12/21 05:20:11;;;;;;;0.20;0.20;;;7.60;99.90;;;;;;4215965;28;20209;-80
2023/12/21 05:22:13;;;;;;;0.13;0.10;;;7.50;99.90;;;;;;4217054;28;20290;-80
2023/12/21 05:24:16;;;;;;;0.60;0.30;;;7.50;99.90;;;;;;4198804;28;20225;-80
2023/12/21 05:26:18;;;;;;;0.67;0.20;;;7.50;99.90;;;;;;4215879;28;20234;-80
2023/12/21 05:28:20;;;;;;;0.13;0.10;;;7.50;99.90;;;;;;4214226;28;20202;-79
2023/12/21 05:30:22;;;;;;;0.20;0.20;;;7.50;99.90;;;;;;4218232;28;21442;-79
2023/12/21 05:32:24;;;;;;;0.10;0.10;;;7.50;99.90;;;;;;4217150;28;20230;-80
2023/12/21 05:34:25;;;;;;;2.73;0.10;;;7.50;99.90;;;;;;4217421;28;20209;-80
2023/12/21 05:36:27;;;;;;;0.37;0.20;;;7.40;99.90;;;;;;4221591;28;20262;-80
2023/12/21 05:38:29;;;;;;;0.20;0.20;;;7.50;99.90;;;;;;4219325;28;20279;-79
2023/12/21 05:40:33;;;;;;;1.33;0.13;;;7.50;99.90;;;;;;4227353;28;20225;-78
2023/12/21 05:42:34;;;;;;;0.50;0.20;;;7.50;99.90;;;;;;4222155;28;20265;-79
2023/12/21 05:44:36;;;;;;;0.20;0.20;;;7.50;99.90;;;;;;4214932;28;20236;-78
2023/12/21 05:46:39;;;;;;;0.20;0.20;;;7.50;99.90;;;;;;4223261;28;20208;-79
2023/12/21 05:48:41;;;;;;;0.67;0.20;;;7.50;99.90;;;;;;4221868;28;20234;-80
2023/12/21 05:50:43;;;;;;;0.20;0.20;;;7.50;99.90;;;;;;4219029;28;20307;-80
2023/12/21 05:52:45;;;;;;;0.23;0.20;;;7.50;99.90;;;;;;4216929;28;20237;-81
2023/12/21 05:54:47;;;;;;;0.27;0.20;;;7.50;99.90;;;;;;4215210;28;20205;-80
2023/12/21 05:56:50;;;;;;;2.90;0.20;;;7.50;99.90;;;;;;4214509;28;20241;-80
2023/12/21 05:58:52;;;;;;;0.23;0.10;;;7.40;99.90;;;;;;4214045;28;20203;-79
2023/12/21 06:00:54;;;;;;;0.23;0.20;;;7.50;99.90;;;;;;4217023;28;20297;-80
2023/12/21 06:02:56;;;;;;;1.73;0.10;;;7.50;99.90;;;;;;4214067;28;20209;-80
2023/12/21 06:04:58;;;;;;;0.57;0.13;;;7.50;99.90;;;;;;4213265;28;20271;-79
2023/12/21 06:07:00;;;;;;;0.40;0.20;;;7.60;99.90;;;;;;4213857;28;20263;-80
2023/12/21 06:09:02;;;;;;;1.53;0.27;;;7.50;99.90;;;;;;4214753;28;20205;-81
2023/12/21 06:11:05;;;;;;;0.10;0.10;;;7.60;99.90;;;;;;4213351;28;20225;-80
2023/12/21 06:13:09;;;;;;;0.20;0.20;;;7.60;99.90;;;;;;4214146;28;20685;-81
2023/12/21 06:15:11;;;;;;;0.20;0.20;;;7.60;99.90;;;;;;4216131;28;20255;-79
2023/12/21 06:17:14;;;;;;;0.57;0.30;;;7.60;99.90;;;;;;4213810;28;20206;-81
2023/12/21 06:19:16;;;;;;;0.50;0.33;;;7.60;99.90;;;;;;4215392;28;20838;-81
2023/12/21 06:21:18;;;;;;;1.07;0.30;;;7.60;99.90;;;;;;4211822;28;20287;-80
2023/12/21 06:23:20;;;;;;;0.40;0.20;;;7.60;99.90;;;;;;4212156;28;20209;-81
2023/12/21 06:25:21;;;;;;;0.20;0.20;;;7.70;99.90;;;;;;4213427;28;20263;-80
2023/12/21 06:27:23;;;;;;;1.60;0.20;;;7.80;99.90;;;;;;4213259;28;20203;-80
2023/12/21 06:29:26;;;;;;;0.20;0.20;;;7.70;99.90;;;;;;4213120;28;20262;-81
2023/12/21 06:31:28;;;;;;;0.20;0.20;;;7.70;99.90;;;;;;4214091;28;21291;-81
2023/12/21 06:33:31;;;;;;;0.20;0.20;;;7.80;99.90;;;;;;4213083;28;20201;-80
2023/12/21 06:35:33;;;;;;;0.30;0.10;;;7.70;99.90;;;;;;4215392;28;20255;-80
2023/12/21 06:37:35;;;;;;;0.20;0.20;;;7.80;99.90;;;;;;4215964;28;20217;-80
2023/12/21 06:39:37;;;;;;;0.20;0.20;;;7.80;99.90;;;;;;4212989;28;20284;-81
2023/12/21 06:41:38;;;;;;;0.10;0.10;;;7.80;99.90;;;;;;4213627;28;20280;-81
2023/12/21 06:43:40;;;;;;;0.10;0.10;;;7.90;99.90;;;;;;4214380;28;20208;-80
2023/12/21 06:45:43;;;;;;;0.47;0.20;;;7.80;99.90;;;;;;4211788;28;20203;-80
2023/12/21 06:47:45;;;;;;;1.17;0.20;;;7.70;99.90;;;;;;4215284;28;20289;-80
2023/12/21 06:49:47;;;;;;;1.40;0.13;;;7.80;99.90;;;;;;4214016;28;20212;-81
2023/12/21 06:51:49;;;;;;;0.20;0.20;;;7.80;99.90;;;;;;4211352;28;20242;-81
2023/12/21 06:53:51;;;;;;;0.97;0.20;;;7.80;99.90;;;;;;4209032;28;20299;-81
2023/12/21 06:55:53;;;;;;;0.27;0.10;;;7.80;99.90;;;;;;4213047;28;20210;-81
2023/12/21 06:57:55;;;;;;;0.30;0.10;;;7.80;99.90;;;;;;4215107;28;20275;-81
2023/12/21 06:59:57;;;;;;;0.20;0.17;;;7.80;99.90;;;;;;4212020;28;20743;-80
2023/12/21 07:02:00;;;;;;;0.47;0.43;;;7.90;99.90;;;;;;4214108;28;20218;-81
2023/12/21 07:04:05;;;;;;;0.50;0.20;;;7.80;99.90;;;;;;4210349;28;20282;-79
2023/12/21 07:06:09;;;;;;;0.20;0.20;;;7.80;99.90;;;;;;4211554;28;20671;-80
2023/12/21 07:08:11;;;;;;;0.20;0.20;;;7.80;99.90;;;;;;4212558;28;20695;-80
2023/12/21 07:10:13;;;;;;;0.67;0.10;;;7.80;99.90;;;;;;4216185;28;20249;-81
2023/12/21 07:12:14;;;;;;;0.37;0.20;;;7.70;99.90;;;;;;4217242;28;20655;-80
2023/12/21 07:14:16;;;;;;;0.40;0.30;;;7.70;99.90;;;;;;4219650;28;20212;-80
2023/12/21 07:16:17;;;;;;;1.80;0.20;;;7.70;99.90;;;;;;4220453;28;20207;-81
2023/12/21 07:18:20;;;;;;;0.13;0.10;;;7.70;99.90;;;;;;4217608;28;20193;-81
2023/12/21 07:20:24;;;;;;;0.20;0.10;;;7.60;99.90;;;;;;4214608;28;20227;-78
2023/12/21 07:22:26;;;;;;;0.17;0.10;;;7.60;99.90;;;;;;4216785;28;20607;-78
2023/12/21 07:24:28;;;;;;;0.30;0.20;;;7.60;99.90;;;;;;4217025;28;20285;-79
2023/12/21 07:26:30;;;;;;;0.10;0.10;;;7.50;99.90;;;;;;4213853;28;20757;-79
2023/12/21 07:28:32;;;;;;;0.30;0.30;;;7.50;99.90;;;;;;4218630;28;20257;-80
2023/12/21 07:30:34;;;;;;;0.30;0.23;;;7.50;99.90;;;;;;4220557;28;20197;-79
2023/12/21 07:32:36;;;;;;;0.30;0.13;;;7.50;99.90;;;;;;4219166;28;20354;-80
2023/12/21 07:34:39;;;;;;;0.53;0.30;;;7.60;99.90;;;;;;4216592;28;20656;-78
2023/12/21 07:36:41;;;;;;;0.20;0.20;;;7.50;99.90;;;;;;4219906;28;20205;-79
2023/12/21 07:38:43;;;;;;;0.10;0.10;;;7.60;99.90;;;;;;4217812;28;20197;-79
2023/12/21 07:40:45;;;;;;;0.10;0.10;;;7.50;99.90;;;;;;4216538;28;20201;-79
2023/12/21 07:42:47;;;;;;;0.57;0.20;;;7.60;99.90;;;;;;4215390;28;20217;-79
2023/12/21 07:44:55;;;;;;;0.33;0.20;;;7.60;99.90;;;;;;4218924;28;20562;-78
2023/12/21 07:46:57;;;;;;;0.10;0.10;;;7.60;99.90;;;;;;4217058;28;20672;-79
2023/12/21 07:48:59;;;;;;;0.20;0.20;;;7.60;99.90;;;;;;4213881;28;20697;-77
2023/12/21 07:51:02;;;;;;;1.27;0.50;;;7.60;99.90;;;;;;4218191;28;20226;-79
2023/12/21 07:53:04;;;;;;;0.63;0.20;;;7.60;99.90;;;;;;4214582;28;20256;-80
2023/12/21 07:55:06;;;;;;;1.60;0.20;;;7.70;99.90;;;;;;4203795;28;20206;-80
2023/12/21 07:57:09;;;;;;;0.20;0.20;;;7.60;99.90;;;;;;4215784;28;20276;-79
2023/12/21 07:59:11;;;;;;;0.10;0.10;;;7.70;99.90;;;;;;4215765;28;20242;-79
2023/12/21 08:01:13;;;;;;;0.57;0.30;;;7.70;99.90;;;;;;4216204;28;20265;-80
2023/12/21 08:03:15;;;;;;;0.87;0.27;;;7.70;99.90;;;;;;4219942;28;20319;-79
2023/12/21 08:05:17;;;;;;;0.17;0.10;;;7.60;99.90;;;;;;4234286;28;20198;-78
2023/12/21 08:07:22;;;;;;;0.13;0.13;;;7.70;99.90;;;;;;4240765;28;20220;-77
2023/12/21 08:09:24;;;;;;;0.73;0.20;;;7.70;99.90;;;;;;4240250;28;20206;-76
2023/12/21 08:11:24;;;;;;;0.10;0.10;;;7.70;99.90;;;;;;4230714;28;20233;-77
2023/12/21 08:13:26;;;;;;;0.20;0.20;;;7.70;99.90;;;;;;4228072;28;20210;-77
2023/12/21 08:15:28;;;;;;;0.40;0.20;;;7.70;99.90;;;;;;4232423;28;20217;-77
2023/12/21 08:17:32;;;;;;;1.00;0.40;;;7.70;99.90;;;;;;4222370;28;20572;-78
2023/12/21 08:19:33;;;;;;;0.60;0.30;;;7.70;99.90;;;;;;4215816;28;20204;-78
2023/12/21 08:21:35;;;;;;;1.03;0.60;;;7.70;99.90;;;;;;4211692;28;20229;-78
2023/12/21 08:23:40;;;;;;;1.80;0.20;;;7.70;99.90;;;;;;4211816;28;20564;-78
2023/12/21 08:25:42;;;;;;;0.10;0.10;;;7.70;99.90;;;;;;4216625;28;20713;-79
2023/12/21 08:27:43;;;;;;;0.20;0.20;;;7.70;99.90;;;;;;4214285;28;20292;-79
2023/12/21 08:29:45;;;;;;;0.10;0.10;;;7.70;99.90;;;;;;4211504;28;20206;-77
2023/12/21 08:31:47;;;;;;;0.33;0.20;;;7.80;99.90;;;;;;4213097;28;20304;-77
2023/12/21 08:33:49;;;;;;;0.57;0.20;;;7.80;99.90;;;;;;4212262;28;20267;-77
2023/12/21 08:35:51;;;;;;;0.33;0.30;;;7.80;99.90;;;;;;4213711;28;20244;-78
2023/12/21 08:37:56;;;;;;;1.57;0.27;;;7.80;99.90;;;;;;4214542;28;20222;-77
2023/12/21 08:39:59;;;;;;;2.20;0.20;;;7.80;99.90;;;;;;4213770;28;20255;-77
2023/12/21 08:42:02;;;;;;;1.50;0.50;;;7.90;99.90;;;;;;4214807;28;20315;-78
2023/12/21 08:44:04;;;;;;;0.10;0.10;;;7.90;99.90;;;;;;4216733;28;20214;-79
2023/12/21 08:46:05;;;;;;;0.17;0.10;;;7.90;99.90;;;;;;4215274;28;20235;-77
2023/12/21 08:48:07;;;;;;;0.63;0.17;;;7.90;99.90;;;;;;4215054;28;20206;-77
2023/12/21 08:50:11;;;;;;;0.10;0.10;;;8.00;99.90;;;;;;4214588;28;20265;-76
2023/12/21 08:52:13;;;;;;;0.20;0.10;;;8.00;99.90;;;;;;4197466;28;20946;-77
2023/12/21 08:54:17;;;;;;;0.23;0.10;;;8.00;99.90;;;;;;4214616;28;20207;-79
2023/12/21 08:56:20;;;;;;;0.20;0.10;;;8.00;99.90;;;;;;4211651;28;20706;-79
2023/12/21 08:58:22;;;;;;;1.00;0.10;;;8.10;99.90;;;;;;4210520;28;20211;-79
2023/12/21 09:00:24;;;;;;;0.20;0.20;;;7.90;99.90;;;;;;4210775;28;20224;-79
2023/12/21 09:02:26;;;;;;;0.30;0.20;;;8.20;99.90;;;;;;4213562;28;20218;-79
2023/12/21 09:04:28;;;;;;;2.23;0.20;;;8.20;99.90;;;;;;4215536;28;20209;-78
2023/12/21 09:06:29;;;;;;;0.10;0.10;;;8.10;99.90;;;;;;4213641;28;20259;-78
2023/12/21 09:08:31;;;;;;;0.30;0.20;;;8.20;99.90;;;;;;4215302;28;20206;-79
2023/12/21 09:10:33;;;;;;;0.37;0.37;;;8.30;99.90;;;;;;4212155;28;20202;-79
2023/12/21 09:12:36;;;;;;;0.20;0.20;;;8.30;99.90;;;;;;4214320;28;20241;-79
2023/12/21 09:14:38;;;;;;;0.60;0.40;;;8.30;99.90;;;;;;4213509;28;20212;-79
2023/12/21 09:16:41;;;;;;;0.20;0.20;;;8.30;99.90;;;;;;4212621;28;20617;-79
2023/12/21 09:18:43;;;;;;;0.83;0.20;;;8.30;99.90;;;;;;4213917;28;20217;-79
2023/12/21 09:20:45;;;;;;;0.10;0.10;;;8.30;99.90;;;;;;4213004;28;20234;-79
2023/12/21 09:22:47;;;;;;;0.13;0.10;;;8.30;99.90;;;;;;4212981;28;20276;-79
2023/12/21 09:24:49;;;;;;;1.30;0.10;;;8.30;99.90;;;;;;4212553;28;20210;-80
2023/12/21 09:26:51;;;;;;;1.53;0.90;;;8.30;99.90;;;;;;4213960;28;20256;-79
2023/12/21 09:28:54;;;;;;;0.67;0.30;;;8.30;99.90;;;;;;4212673;28;20211;-79
2023/12/21 09:30:57;;;;;;;0.10;0.10;;;8.40;99.90;;;;;;4215639;28;20207;-79
2023/12/21 09:32:59;;;;;;;0.60;0.30;;;8.40;99.90;;;;;;4214514;28;20231;-81
2023/12/21 09:35:01;;;;;;;0.53;0.23;;;8.40;99.90;;;;;;4220014;28;20264;-80
2023/12/21 09:37:04;;;;;;;0.10;0.10;;;8.30;99.90;;;;;;4219081;28;20692;-80
2023/12/21 09:39:06;;;;;;;0.43;0.20;;;8.40;99.90;;;;;;4219415;28;20245;-80
2023/12/21 09:41:08;;;;;;;0.20;0.20;;;8.40;99.90;;;;;;4220579;28;20462;-80
2023/12/21 09:43:16;;;;;;;0.23;0.20;;;8.40;99.90;;;;;;4220806;28;20202;-80
2023/12/21 09:45:20;;;;;;;0.20;0.20;;;8.50;99.90;;;;;;4218038;28;20211;-80
2023/12/21 09:47:23;;;;;;;0.20;0.20;;;8.50;99.90;;;;;;4216587;28;20845;-79
2023/12/21 09:49:25;;;;;;;0.40;0.20;;;8.40;99.90;;;;;;4218471;28;20596;-79
2023/12/21 09:51:30;;;;;;;0.40;0.20;;;8.40;99.90;;;;;;4219693;28;20250;-79
2023/12/21 09:53:33;;;;;;;0.13;0.10;;;8.30;99.90;;;;;;4217966;28;20212;-79
2023/12/21 09:55:36;;;;;;;0.10;0.10;;;8.30;99.90;;;;;;4219286;28;20207;-80
2023/12/21 09:57:39;;;;;;;0.20;0.20;;;8.30;99.90;;;;;;4220053;28;20215;-79
2023/12/21 09:59:41;;;;;;;0.30;0.20;;;8.30;99.90;;;;;;4217901;28;20207;-79
2023/12/21 10:01:44;;;;;;;0.83;0.30;;;8.30;99.90;;;;;;4199011;28;20236;-79
2023/12/21 10:03:45;;;;;;;0.40;0.40;;;8.30;99.90;;;;;;4218111;28;20260;-80
2023/12/21 10:05:48;;;;;;;0.57;0.30;;;8.30;99.90;;;;;;4220356;28;20251;-79
2023/12/21 10:07:50;;;;;;;1.50;0.60;;;8.40;99.90;;;;;;4217693;28;20256;-80
2023/12/21 10:09:52;;;;;;;0.10;0.10;;;8.40;99.90;;;;;;4213990;28;20813;-79
2023/12/21 10:11:54;;;;;;;0.20;0.20;;;8.40;99.90;;;;;;4220350;28;20238;-79
2023/12/21 10:13:57;;;;;;;0.20;0.10;;;8.30;99.90;;;;;;4215552;28;20202;-79
2023/12/21 10:15:59;;;;;;;0.73;0.20;;;8.30;99.90;;;;;;4212578;28;20226;-78
2023/12/21 10:18:06;;;;;;;0.23;0.20;;;8.10;99.90;;;;;;4212503;28;20246;-78
2023/12/21 10:20:11;;;;;;;0.73;0.20;;;8.10;99.90;;;;;;4210752;28;20213;-79
2023/12/21 10:22:13;;;;;;;0.67;0.23;;;8.10;99.90;;;;;;4211665;28;20751;-77
2023/12/21 10:24:15;;;;;;;0.83;0.17;;;8.00;99.90;;;;;;4212124;28;20767;-78
2023/12/21 10:26:17;;;;;;;0.10;0.10;;;8.00;99.90;;;;;;4213174;28;20238;-77
2023/12/21 10:28:21;;;;;;;0.73;0.20;;;8.00;99.90;;;;;;4211744;28;20251;-78
2023/12/21 10:30:24;;;;;;;0.30;0.20;;;7.90;99.90;;;;;;4213316;28;20255;-77
2023/12/21 10:32:26;;;;;;;0.30;0.17;;;7.90;99.90;;;;;;4218376;28;20263;-77
2023/12/21 10:34:28;;;;;;;0.40;0.30;;;7.90;99.90;;;;;;4226851;28;20273;-78
2023/12/21 10:36:32;;;;;;;0.60;0.10;;;7.90;99.90;;;;;;4226770;28;20205;-78
2023/12/21 10:38:34;;;;;;;0.40;0.30;;;7.90;99.90;;;;;;4223034;28;20197;-76
2023/12/21 10:40:36;;;;;;;0.97;0.53;;;7.90;99.90;;;;;;4225053;28;20680;-75
2023/12/21 10:42:38;;;;;;;0.47;0.40;;;7.90;99.90;;;;;;4219926;28;20222;-76
2023/12/21 10:44:44;;;;;;;0.87;0.60;;;7.80;99.90;;;;;;4219701;28;20220;-77